sensor_id;sensor_type;location;lat;lon;timestamp;pressure;altitude;pressure_sealevel;temperature;humidity
9893;BME280;4985;49.092;8.542;2022-11-27T00:01:07;100563.09;;;14.09;54.42
9893;BME280;4985;49.092;8.542;2022-11-27T00:03:34;100555.16;;;14.09;54.40
9893;BME280;4985;49.092;8.542;2022-11-27T00:06:02;100557.81;;;14.09;54.40
9893;BME280;4985;49.092;8.542;2022-11-27T00:08:29;100556.00;;;14.10;54.42
9893;BME280;4985;49.092;8.542;2022-11-27T00:10:56;100549.88;;;14.09;54.40
9893;BME280;4985;49.092;8.542;2022-11-27T00:13:22;100545.41;;;14.10;54.40
9893;BME280;4985;49.092;8.542;2022-11-27T00:15:55;100538.44;;;14.09;54.40
9893;BME280;4985;49.092;8.542;2022-11-27T00:18:22;100537.44;;;14.10;54.40
9893;BME280;4985;49.092;8.542;2022-11-27T00:20:48;100540.09;;;14.10;54.38
9893;BME280;4985;49.092;8.542;2022-11-27T00:23:18;100544.56;;;14.09;54.39
9893;BME280;4985;49.092;8.542;2022-11-27T00:25:48;100532.31;;;14.08;54.40
9893;BME280;4985;49.092;8.542;2022-11-27T00:28:15;100527.84;;;14.09;54.40
9893;BME280;4985;49.092;8.542;2022-11-27T00:30:42;100523.38;;;14.09;54.38
9893;BME280;4985;49.092;8.542;2022-11-27T00:33:10;100519.91;;;14.09;54.38
9893;BME280;4985;49.092;8.542;2022-11-27T00:35:39;100514.59;;;14.09;54.38
9893;BME280;4985;49.092;8.542;2022-11-27T00:38:06;100508.66;;;14.07;54.38
9893;BME280;4985;49.092;8.542;2022-11-27T00:40:33;100508.31;;;14.10;54.39
9893;BME280;4985;49.092;8.542;2022-11-27T00:43:00;100501.37;;;14.09;54.36
9893;BME280;4985;49.092;8.542;2022-11-27T00:45:28;100496.06;;;14.09;54.36
9893;BME280;4985;49.092;8.542;2022-11-27T00:47:55;100487.13;;;14.10;54.34
9893;BME280;4985;49.092;8.542;2022-11-27T00:50:25;100475.72;;;14.09;54.33
9893;BME280;4985;49.092;8.542;2022-11-27T00:52:53;100467.78;;;14.09;54.32
9893;BME280;4985;49.092;8.542;2022-11-27T00:55:28;100460.66;;;14.10;54.33
9893;BME280;4985;49.092;8.542;2022-11-27T00:57:55;100466.78;;;14.10;54.32
9893;BME280;4985;49.092;8.542;2022-11-27T01:00:24;100464.31;;;14.09;54.33
9893;BME280;4985;49.092;8.542;2022-11-27T01:02:51;100461.66;;;14.09;54.33
9893;BME280;4985;49.092;8.542;2022-11-27T01:05:19;100459.00;;;14.09;54.33
9893;BME280;4985;49.092;8.542;2022-11-27T01:07:47;100454.03;;;14.06;54.33
9893;BME280;4985;49.092;8.542;2022-11-27T01:10:16;100460.66;;;14.10;54.34
9893;BME280;4985;49.092;8.542;2022-11-27T01:12:43;100456.34;;;14.09;54.33
9893;BME280;4985;49.092;8.542;2022-11-27T01:15:10;100447.91;;;14.05;54.33
9893;BME280;4985;49.092;8.542;2022-11-27T01:17:36;100463.63;;;14.07;54.32
9893;BME280;4985;49.092;8.542;2022-11-27T01:20:04;100460.81;;;14.08;54.34
9893;BME280;4985;49.092;8.542;2022-11-27T01:22:34;100456.53;;;14.07;54.35
9893;BME280;4985;49.092;8.542;2022-11-27T01:25:02;100453.03;;;14.07;54.35
9893;BME280;4985;49.092;8.542;2022-11-27T01:27:29;100455.69;;;14.07;54.35
9893;BME280;4985;49.092;8.542;2022-11-27T01:29:56;100454.03;;;14.06;54.35
9893;BME280;4985;49.092;8.542;2022-11-27T01:32:24;100450.56;;;14.05;54.38
9893;BME280;4985;49.092;8.542;2022-11-27T01:34:51;100438.97;;;14.06;54.38
9893;BME280;4985;49.092;8.542;2022-11-27T01:37:19;100428.53;;;14.05;54.37
9893;BME280;4985;49.092;8.542;2022-11-27T01:39:45;100437.31;;;14.05;54.36
9893;BME280;4985;49.092;8.542;2022-11-27T01:42:15;100431.19;;;14.05;54.36
9893;BME280;4985;49.092;8.542;2022-11-27T01:44:51;100428.38;;;14.06;54.35
9893;BME280;4985;49.092;8.542;2022-11-27T01:47:27;100422.72;;;14.01;54.35
9893;BME280;4985;49.092;8.542;2022-11-27T01:50:00;100429.38;;;14.05;54.35
9893;BME280;4985;49.092;8.542;2022-11-27T01:52:34;100435.62;;;14.04;54.35
9893;BME280;4985;49.092;8.542;2022-11-27T01:55:04;100440.78;;;14.06;54.35
9893;BME280;4985;49.092;8.542;2022-11-27T01:57:39;100439.97;;;14.05;54.34
9893;BME280;4985;49.092;8.542;2022-11-27T02:00:08;100440.09;;;14.04;54.36
9893;BME280;4985;49.092;8.542;2022-11-27T02:02:37;100446.22;;;14.04;54.37
9893;BME280;4985;49.092;8.542;2022-11-27T02:05:04;100446.38;;;14.03;54.39
9893;BME280;4985;49.092;8.542;2022-11-27T02:07:30;100442.06;;;14.02;54.40
9893;BME280;4985;49.092;8.542;2022-11-27T02:09:57;100443.72;;;14.03;54.39
9893;BME280;4985;49.092;8.542;2022-11-27T02:12:25;100438.44;;;14.03;54.39
9893;BME280;4985;49.092;8.542;2022-11-27T02:15:01;100438.44;;;14.03;54.39
9893;BME280;4985;49.092;8.542;2022-11-27T02:17:36;100443.72;;;14.03;54.39
9893;BME280;4985;49.092;8.542;2022-11-27T02:23:10;100447.37;;;14.02;54.39
9893;BME280;4985;49.092;8.542;2022-11-27T02:25:49;100442.06;;;14.02;54.35
9893;BME280;4985;49.092;8.542;2022-11-27T02:28:27;100438.59;;;14.01;54.35
9893;BME280;4985;49.092;8.542;2022-11-27T02:31:05;100440.25;;;14.02;54.33
9893;BME280;4985;49.092;8.542;2022-11-27T02:33:42;100436.78;;;14.02;54.34
9893;BME280;4985;49.092;8.542;2022-11-27T02:36:15;100431.47;;;14.02;54.35
9893;BME280;4985;49.092;8.542;2022-11-27T02:38:51;100432.47;;;14.01;54.35
9893;BME280;4985;49.092;8.542;2022-11-27T02:41:22;100429.81;;;14.01;54.35
9893;BME280;4985;49.092;8.542;2022-11-27T02:43:51;100424.53;;;14.01;54.38
9893;BME280;4985;49.092;8.542;2022-11-27T02:46:25;100435.12;;;14.01;54.38
9893;BME280;4985;49.092;8.542;2022-11-27T02:48:56;100428.16;;;13.99;54.37
9893;BME280;4985;49.092;8.542;2022-11-27T02:51:27;100434.28;;;14.00;54.37
9893;BME280;4985;49.092;8.542;2022-11-27T02:53:58;100429.81;;;14.01;54.36
9893;BME280;4985;49.092;8.542;2022-11-27T02:56:27;100433.47;;;13.99;54.35
9893;BME280;4985;49.092;8.542;2022-11-27T02:58:57;100439.59;;;14.00;54.35
9893;BME280;4985;49.092;8.542;2022-11-27T03:01:28;100444.88;;;14.00;54.35
9893;BME280;4985;49.092;8.542;2022-11-27T03:03:59;100439.59;;;14.00;54.34
9893;BME280;4985;49.092;8.542;2022-11-27T03:06:32;100431.81;;;13.98;54.36
9893;BME280;4985;49.092;8.542;2022-11-27T03:09:05;100421.22;;;13.98;54.36
9893;BME280;4985;49.092;8.542;2022-11-27T03:11:33;100425.69;;;13.98;54.36
9893;BME280;4985;49.092;8.542;2022-11-27T03:14:07;100397.03;;;13.93;54.35
9893;BME280;4985;49.092;8.542;2022-11-27T03:16:41;100408.97;;;13.97;54.36
9893;BME280;4985;49.092;8.542;2022-11-27T03:19:14;100398.00;;;13.92;54.35
9893;BME280;4985;49.092;8.542;2022-11-27T03:21:44;100404.66;;;13.96;54.38
9893;BME280;4985;49.092;8.542;2022-11-27T03:24:14;100402.00;;;13.96;54.38
9893;BME280;4985;49.092;8.542;2022-11-27T03:26:41;100410.94;;;13.95;54.38
9893;BME280;4985;49.092;8.542;2022-11-27T03:29:10;100410.94;;;13.95;54.40
9893;BME280;4985;49.092;8.542;2022-11-27T03:31:40;100410.13;;;13.95;54.41
9893;BME280;4985;49.092;8.542;2022-11-27T03:34:07;100409.28;;;13.94;54.39
9893;BME280;4985;49.092;8.542;2022-11-27T03:36:34;100402.19;;;13.95;54.40
9893;BME280;4985;49.092;8.542;2022-11-27T03:39:00;100405.81;;;13.94;54.41
9893;BME280;4985;49.092;8.542;2022-11-27T03:41:37;100406.78;;;13.93;54.41
9893;BME280;4985;49.092;8.542;2022-11-27T03:44:12;100413.75;;;13.94;54.42
9893;BME280;4985;49.092;8.542;2022-11-27T03:46:47;100406.78;;;13.93;54.40
9893;BME280;4985;49.092;8.542;2022-11-27T03:49:30;100407.63;;;13.93;54.40
9893;BME280;4985;49.092;8.542;2022-11-27T03:52:07;100404.13;;;13.93;54.40
9893;BME280;4985;49.092;8.542;2022-11-27T03:54:42;100402.34;;;13.93;54.40
9893;BME280;4985;49.092;8.542;2022-11-27T03:57:17;100399.81;;;13.92;54.41
9893;BME280;4985;49.092;8.542;2022-11-27T03:59:49;100393.69;;;13.91;54.43
9893;BME280;4985;49.092;8.542;2022-11-27T04:02:30;100388.72;;;13.88;54.41
9893;BME280;4985;49.092;8.542;2022-11-27T04:05:05;100390.06;;;13.92;54.39
9893;BME280;4985;49.092;8.542;2022-11-27T04:07:34;100388.41;;;13.91;54.41
9893;BME280;4985;49.092;8.542;2022-11-27T04:10:00;100388.41;;;13.91;54.42
9893;BME280;4985;49.092;8.542;2022-11-27T04:12:27;100383.13;;;13.91;54.41
9893;BME280;4985;49.092;8.542;2022-11-27T04:14:57;100380.47;;;13.91;54.41
9893;BME280;4985;49.092;8.542;2022-11-27T04:17:23;100380.63;;;13.90;54.41
9893;BME280;4985;49.092;8.542;2022-11-27T04:19:52;100386.75;;;13.90;54.41
9893;BME280;4985;49.092;8.542;2022-11-27T04:22:19;100390.38;;;13.89;54.41
9893;BME280;4985;49.092;8.542;2022-11-27T04:24:45;100380.63;;;13.90;54.42
9893;BME280;4985;49.092;8.542;2022-11-27T04:27:12;100378.97;;;13.89;54.40
9893;BME280;4985;49.092;8.542;2022-11-27T04:29:41;100370.19;;;13.88;54.42
9893;BME280;4985;49.092;8.542;2022-11-27T04:32:08;100369.37;;;13.88;54.42
9893;BME280;4985;49.092;8.542;2022-11-27T04:34:38;100364.75;;;13.90;54.40
9893;BME280;4985;49.092;8.542;2022-11-27T04:37:06;100358.63;;;13.89;54.38
9893;BME280;4985;49.092;8.542;2022-11-27T04:39:32;100355.63;;;13.84;54.39
9893;BME280;4985;49.092;8.542;2022-11-27T04:41:59;100359.63;;;13.88;54.38
9893;BME280;4985;49.092;8.542;2022-11-27T04:44:25;100348.19;;;13.88;54.38
9893;BME280;4985;49.092;8.542;2022-11-27T04:46:52;100349.19;;;13.87;54.39
9893;BME280;4985;49.092;8.542;2022-11-27T04:49:20;100364.91;;;13.88;54.40
9893;BME280;4985;49.092;8.542;2022-11-27T04:51:47;100355.31;;;13.87;54.41
9893;BME280;4985;49.092;8.542;2022-11-27T04:54:14;100353.66;;;13.86;54.40
9893;BME280;4985;49.092;8.542;2022-11-27T04:56:42;100354.47;;;13.87;54.39
9893;BME280;4985;49.092;8.542;2022-11-27T04:59:08;100358.94;;;13.86;54.41
9893;BME280;4985;49.092;8.542;2022-11-27T05:01:35;100360.94;;;13.84;54.41
9893;BME280;4985;49.092;8.542;2022-11-27T05:04:01;100363.41;;;13.86;54.41
9893;BME280;4985;49.092;8.542;2022-11-27T05:06:28;100353.66;;;13.86;54.40
9893;BME280;4985;49.092;8.542;2022-11-27T05:08:57;100346.72;;;13.85;54.40
9893;BME280;4985;49.092;8.542;2022-11-27T05:11:28;100345.06;;;13.84;54.41
9893;BME280;4985;49.092;8.542;2022-11-27T05:13:55;100353.00;;;13.84;54.39
9893;BME280;4985;49.092;8.542;2022-11-27T05:16:35;100339.22;;;13.81;54.38
9893;BME280;4985;49.092;8.542;2022-11-27T05:19:04;100340.75;;;13.83;54.41
9893;BME280;4985;49.092;8.542;2022-11-27T05:21:30;100342.56;;;13.83;54.44
9893;BME280;4985;49.092;8.542;2022-11-27T05:23:57;100328.34;;;13.84;54.41
9893;BME280;4985;49.092;8.542;2022-11-27T05:26:24;100325.84;;;13.82;54.43
9893;BME280;4985;49.092;8.542;2022-11-27T05:28:53;100332.81;;;13.83;54.42
9893;BME280;4985;49.092;8.542;2022-11-27T05:31:19;100332.81;;;13.83;54.42
9893;BME280;4985;49.092;8.542;2022-11-27T05:33:46;100326.81;;;13.81;54.42
9893;BME280;4985;49.092;8.542;2022-11-27T05:36:13;100320.69;;;13.81;54.41
9893;BME280;4985;49.092;8.542;2022-11-27T05:38:39;100332.09;;;13.81;54.42
9893;BME280;4985;49.092;8.542;2022-11-27T05:41:06;100328.63;;;13.81;54.42
9893;BME280;4985;49.092;8.542;2022-11-27T05:43:32;100329.63;;;13.80;54.44
9893;BME280;4985;49.092;8.542;2022-11-27T05:46:04;100334.91;;;13.80;54.43
9893;BME280;4985;49.092;8.542;2022-11-27T05:48:31;100329.13;;;13.76;54.44
9893;BME280;4985;49.092;8.542;2022-11-27T05:50:58;100329.78;;;13.78;54.45
9893;BME280;4985;49.092;8.542;2022-11-27T05:53:25;100329.78;;;13.78;54.45
9893;BME280;4985;49.092;8.542;2022-11-27T05:55:51;100317.53;;;13.77;54.45
9893;BME280;4985;49.092;8.542;2022-11-27T05:58:18;100317.53;;;13.77;54.45
9893;BME280;4985;49.092;8.542;2022-11-27T06:00:44;100325.47;;;13.77;54.44
9893;BME280;4985;49.092;8.542;2022-11-27T06:03:15;100331.75;;;13.76;54.46
9893;BME280;4985;49.092;8.542;2022-11-27T06:05:41;100337.88;;;13.77;54.47
9893;BME280;4985;49.092;8.542;2022-11-27T06:08:10;100330.94;;;13.76;54.45
9893;BME280;4985;49.092;8.542;2022-11-27T06:10:37;100338.06;;;13.75;54.46
9893;BME280;4985;49.092;8.542;2022-11-27T06:13:04;100337.22;;;13.75;54.45
9893;BME280;4985;49.092;8.542;2022-11-27T06:15:31;100340.69;;;13.75;54.46
9893;BME280;4985;49.092;8.542;2022-11-27T06:17:57;100341.53;;;13.76;54.45
9893;BME280;4985;49.092;8.542;2022-11-27T06:20:25;100320.53;;;13.74;54.43
9893;BME280;4985;49.092;8.542;2022-11-27T06:22:52;100322.16;;;13.75;54.43
9893;BME280;4985;49.092;8.542;2022-11-27T06:25:18;100323.16;;;13.74;54.42
9893;BME280;4985;49.092;8.542;2022-11-27T06:27:45;100317.03;;;13.74;54.44
9893;BME280;4985;49.092;8.542;2022-11-27T06:30:14;100307.44;;;13.73;54.44
9893;BME280;4985;49.092;8.542;2022-11-27T06:32:40;100301.16;;;13.74;54.42
9893;BME280;4985;49.092;8.542;2022-11-27T06:35:08;100297.69;;;13.73;54.43
9893;BME280;4985;49.092;8.542;2022-11-27T06:37:36;100302.16;;;13.73;54.43
9893;BME280;4985;49.092;8.542;2022-11-27T06:40:06;100302.97;;;13.73;54.42
9893;BME280;4985;49.092;8.542;2022-11-27T06:42:33;100298.69;;;13.72;54.42
9893;BME280;4985;49.092;8.542;2022-11-27T06:45:00;100293.38;;;13.72;54.42
9893;BME280;4985;49.092;8.542;2022-11-27T06:47:26;100291.72;;;13.71;54.40
9893;BME280;4985;49.092;8.542;2022-11-27T06:49:53;100295.03;;;13.73;54.40
9893;BME280;4985;49.092;8.542;2022-11-27T06:52:19;100291.72;;;13.71;54.41
9893;BME280;4985;49.092;8.542;2022-11-27T06:54:47;100279.47;;;13.70;54.43
9893;BME280;4985;49.092;8.542;2022-11-27T06:57:14;100273.34;;;13.69;54.42
9893;BME280;4985;49.092;8.542;2022-11-27T06:59:40;100279.31;;;13.72;54.42
9893;BME280;4985;49.092;8.542;2022-11-27T07:02:12;100280.44;;;13.69;54.43
9893;BME280;4985;49.092;8.542;2022-11-27T07:04:39;100284.91;;;13.68;54.45
9893;BME280;4985;49.092;8.542;2022-11-27T07:07:07;100267.22;;;13.69;54.43
9893;BME280;4985;49.092;8.542;2022-11-27T07:09:34;100272.50;;;13.69;54.43
9893;BME280;4985;49.092;8.542;2022-11-27T07:12:04;100265.56;;;13.68;54.43
9893;BME280;4985;49.092;8.542;2022-11-27T07:14:32;100261.25;;;13.67;54.44
9893;BME280;4985;49.092;8.542;2022-11-27T07:16:59;100260.28;;;13.68;54.46
9893;BME280;4985;49.092;8.542;2022-11-27T07:19:25;100258.63;;;13.67;54.44
9893;BME280;4985;49.092;8.542;2022-11-27T07:21:54;100241.75;;;13.68;54.44
9893;BME280;4985;49.092;8.542;2022-11-27T07:24:23;100233.00;;;13.67;54.44
9893;BME280;4985;49.092;8.542;2022-11-27T07:26:51;100233.00;;;13.67;54.45
9893;BME280;4985;49.092;8.542;2022-11-27T07:29:19;100232.31;;;13.65;54.46
9893;BME280;4985;49.092;8.542;2022-11-27T07:31:46;100234.97;;;13.65;54.47
9893;BME280;4985;49.092;8.542;2022-11-27T07:34:15;100236.78;;;13.65;54.48
9893;BME280;4985;49.092;8.542;2022-11-27T07:36:44;100233.31;;;13.64;54.47
9893;BME280;4985;49.092;8.542;2022-11-27T07:39:15;100232.50;;;13.64;54.47
9893;BME280;4985;49.092;8.542;2022-11-27T07:41:41;100229.00;;;13.63;54.49
9893;BME280;4985;49.092;8.542;2022-11-27T07:44:08;100231.66;;;13.63;54.49
9893;BME280;4985;49.092;8.542;2022-11-27T07:46:36;100242.25;;;13.63;54.49
9893;BME280;4985;49.092;8.542;2022-11-27T07:49:03;100247.69;;;13.62;54.51
9893;BME280;4985;49.092;8.542;2022-11-27T07:51:29;100255.47;;;13.63;54.51
9893;BME280;4985;49.092;8.542;2022-11-27T07:53:56;100244.88;;;13.63;54.51
9893;BME280;4985;49.092;8.542;2022-11-27T07:56:24;100232.00;;;13.60;54.50
9893;BME280;4985;49.092;8.542;2022-11-27T07:58:51;100242.41;;;13.62;54.51
9893;BME280;4985;49.092;8.542;2022-11-27T08:01:18;100239.75;;;13.62;54.51
9893;BME280;4985;49.092;8.542;2022-11-27T08:03:49;100239.75;;;13.62;54.50
9893;BME280;4985;49.092;8.542;2022-11-27T08:06:18;100231.81;;;13.62;54.52
9893;BME280;4985;49.092;8.542;2022-11-27T08:08:48;100231.00;;;13.61;54.50
9893;BME280;4985;49.092;8.542;2022-11-27T08:11:18;100233.63;;;13.61;54.50
9893;BME280;4985;49.092;8.542;2022-11-27T08:13:46;100241.56;;;13.61;54.51
9893;BME280;4985;49.092;8.542;2022-11-27T08:16:13;100241.75;;;13.60;54.50
9893;BME280;4985;49.092;8.542;2022-11-27T08:18:40;100250.34;;;13.62;54.49
9893;BME280;4985;49.092;8.542;2022-11-27T08:21:08;100245.88;;;13.62;54.47
9893;BME280;4985;49.092;8.542;2022-11-27T08:23:35;100238.59;;;13.64;54.45
9893;BME280;4985;49.092;8.542;2022-11-27T08:26:10;100221.91;;;13.64;54.42
9893;BME280;4985;49.092;8.542;2022-11-27T08:28:41;100223.87;;;13.62;54.45
9893;BME280;4985;49.092;8.542;2022-11-27T08:31:19;100200.06;;;13.62;54.44
9893;BME280;4985;49.092;8.542;2022-11-27T08:33:46;100182.53;;;13.61;54.46
9893;BME280;4985;49.092;8.542;2022-11-27T08:36:15;100177.25;;;13.61;54.48
9893;BME280;4985;49.092;8.542;2022-11-27T08:38:42;100175.59;;;13.60;54.49
9893;BME280;4985;49.092;8.542;2022-11-27T08:41:11;100172.94;;;13.60;54.51
9893;BME280;4985;49.092;8.542;2022-11-27T08:43:38;100185.34;;;13.59;54.54
9893;BME280;4985;49.092;8.542;2022-11-27T08:46:05;100184.50;;;13.59;54.54
9893;BME280;4985;49.092;8.542;2022-11-27T08:48:32;100189.13;;;13.57;54.57
9893;BME280;4985;49.092;8.542;2022-11-27T08:51:04;100194.41;;;13.57;54.62
9893;BME280;4985;49.092;8.542;2022-11-27T08:53:37;100179.53;;;13.56;54.63
9893;BME280;4985;49.092;8.542;2022-11-27T08:56:05;100182.19;;;13.56;54.61
9893;BME280;4985;49.092;8.542;2022-11-27T08:58:31;100166.31;;;13.56;54.63
9893;BME280;4985;49.092;8.542;2022-11-27T09:01:06;100155.91;;;13.54;54.62
9893;BME280;4985;49.092;8.542;2022-11-27T09:03:36;100148.78;;;13.55;54.63
9893;BME280;4985;49.092;8.542;2022-11-27T09:06:05;100158.53;;;13.54;54.63
9893;BME280;4985;49.092;8.542;2022-11-27T09:08:32;100159.53;;;13.53;54.65
9893;BME280;4985;49.092;8.542;2022-11-27T09:11:00;100161.34;;;13.53;54.68
9893;BME280;4985;49.092;8.542;2022-11-27T09:13:30;100161.34;;;13.53;54.69
9893;BME280;4985;49.092;8.542;2022-11-27T09:16:01;100159.69;;;13.52;54.72
9893;BME280;4985;49.092;8.542;2022-11-27T09:18:28;100157.22;;;13.50;54.74
9893;BME280;4985;49.092;8.542;2022-11-27T09:20:57;100161.69;;;13.50;54.75
9893;BME280;4985;49.092;8.542;2022-11-27T09:23:24;100166.97;;;13.50;54.76
9893;BME280;4985;49.092;8.542;2022-11-27T09:25:52;100167.13;;;13.48;54.81
9893;BME280;4985;49.092;8.542;2022-11-27T09:28:20;100165.44;;;13.47;54.83
9893;BME280;4985;49.092;8.542;2022-11-27T09:30:46;100173.38;;;13.47;54.86
9893;BME280;4985;49.092;8.542;2022-11-27T09:33:13;100172.56;;;13.47;54.86
9893;BME280;4985;49.092;8.542;2022-11-27T09:35:40;100169.91;;;13.47;54.85
9893;BME280;4985;49.092;8.542;2022-11-27T09:38:06;100159.19;;;13.48;54.82
9893;BME280;4985;49.092;8.542;2022-11-27T09:40:33;100156.38;;;13.50;54.79
9893;BME280;4985;49.092;8.542;2022-11-27T09:43:02;100146.81;;;13.49;54.80
9893;BME280;4985;49.092;8.542;2022-11-27T09:45:38;100145.81;;;13.50;54.79
9893;BME280;4985;49.092;8.542;2022-11-27T09:48:13;100152.59;;;13.52;54.76
9893;BME280;4985;49.092;8.542;2022-11-27T09:50:43;100143.16;;;13.50;54.73
9893;BME280;4985;49.092;8.542;2022-11-27T09:53:20;100140.34;;;13.51;54.72
9893;BME280;4985;49.092;8.542;2022-11-27T09:55:51;100135.22;;;13.50;54.73
9893;BME280;4985;49.092;8.542;2022-11-27T09:58:24;100143.16;;;13.50;54.77
9893;BME280;4985;49.092;8.542;2022-11-27T10:00:57;100138.87;;;13.49;54.78
9893;BME280;4985;49.092;8.542;2022-11-27T10:03:25;100127.59;;;13.47;54.78
9893;BME280;4985;49.092;8.542;2022-11-27T10:06:02;100132.88;;;13.47;54.81
9893;BME280;4985;49.092;8.542;2022-11-27T10:08:39;100135.53;;;13.47;54.82
9893;BME280;4985;49.092;8.542;2022-11-27T10:11:19;100131.06;;;13.47;54.81
9893;BME280;4985;49.092;8.542;2022-11-27T10:14:02;100135.53;;;13.47;54.83
9893;BME280;4985;49.092;8.542;2022-11-27T10:16:37;100128.91;;;13.43;54.84
9893;BME280;4985;49.092;8.542;2022-11-27T10:19:15;100121.97;;;13.42;54.84
9893;BME280;4985;49.092;8.542;2022-11-27T10:21:53;100131.22;;;13.46;54.83
9893;BME280;4985;49.092;8.542;2022-11-27T10:24:30;100121.63;;;13.45;54.85
9893;BME280;4985;49.092;8.542;2022-11-27T10:27:12;100128.75;;;13.44;54.89
9893;BME280;4985;49.092;8.542;2022-11-27T10:29:47;100122.63;;;13.44;54.89
9893;BME280;4985;49.092;8.542;2022-11-27T10:32:19;100114.69;;;13.44;54.89
9893;BME280;4985;49.092;8.542;2022-11-27T10:34:50;100111.06;;;13.45;54.87
9893;BME280;4985;49.092;8.542;2022-11-27T10:37:21;100101.31;;;13.45;54.87
9893;BME280;4985;49.092;8.542;2022-11-27T10:39:53;100102.97;;;13.46;54.84
9893;BME280;4985;49.092;8.542;2022-11-27T10:42:31;100093.19;;;13.47;54.82
9893;BME280;4985;49.092;8.542;2022-11-27T10:45:02;100085.97;;;13.49;54.79
9893;BME280;4985;49.092;8.542;2022-11-27T10:47:38;100082.31;;;13.50;54.76
9893;BME280;4985;49.092;8.542;2022-11-27T10:50:12;100067.28;;;13.50;54.75
9893;BME280;4985;49.092;8.542;2022-11-27T10:52:49;100077.03;;;13.50;54.75
9893;BME280;4985;49.092;8.542;2022-11-27T10:55:29;100062.00;;;13.50;54.74
9893;BME280;4985;49.092;8.542;2022-11-27T10:58:06;100063.81;;;13.50;54.75
9893;BME280;4985;49.092;8.542;2022-11-27T11:00:40;100041.66;;;13.51;54.75
9893;BME280;4985;49.092;8.542;2022-11-27T11:03:16;100040.00;;;13.50;54.72
9893;BME280;4985;49.092;8.542;2022-11-27T11:05:55;100030.25;;;13.50;54.76
9893;BME280;4985;49.092;8.542;2022-11-27T11:08:22;100018.84;;;13.50;54.75
9893;BME280;4985;49.092;8.542;2022-11-27T11:10:52;100013.56;;;13.50;54.75
9893;BME280;4985;49.092;8.542;2022-11-27T11:13:20;99997.69;;;13.50;54.77
9893;BME280;4985;49.092;8.542;2022-11-27T11:15:54;99992.38;;;13.50;54.76
9893;BME280;4985;49.092;8.542;2022-11-27T11:18:32;99976.53;;;13.50;54.76
9893;BME280;4985;49.092;8.542;2022-11-27T11:21:01;99983.63;;;13.49;54.76
9893;BME280;4985;49.092;8.542;2022-11-27T11:23:32;99977.66;;;13.47;54.78
9893;BME280;4985;49.092;8.542;2022-11-27T11:26:22;99979.47;;;13.47;54.82
9893;BME280;4985;49.092;8.542;2022-11-27T11:28:52;99976.81;;;13.47;54.83
9893;BME280;4985;49.092;8.542;2022-11-27T11:31:22;99976.81;;;13.47;54.83
9893;BME280;4985;49.092;8.542;2022-11-27T11:33:56;99976.00;;;13.46;54.84
9893;BME280;4985;49.092;8.542;2022-11-27T11:36:24;99972.38;;;13.47;54.82
9893;BME280;4985;49.092;8.542;2022-11-27T11:38:51;99973.88;;;13.50;54.82
9893;BME280;4985;49.092;8.542;2022-11-27T11:41:20;99974.03;;;13.48;54.86
9893;BME280;4985;49.092;8.542;2022-11-27T11:43:53;99974.88;;;13.49;54.84
9893;BME280;4985;49.092;8.542;2022-11-27T11:46:23;99971.53;;;13.47;54.83
9893;BME280;4985;49.092;8.542;2022-11-27T11:48:57;99960.97;;;13.47;54.85
9893;BME280;4985;49.092;8.542;2022-11-27T11:51:31;99962.78;;;13.46;54.87
9893;BME280;4985;49.092;8.542;2022-11-27T11:54:16;99952.03;;;13.48;54.87
9893;BME280;4985;49.092;8.542;2022-11-27T11:56:49;99945.91;;;13.47;54.86
9893;BME280;4985;49.092;8.542;2022-11-27T11:59:22;99949.56;;;13.46;54.87
9893;BME280;4985;49.092;8.542;2022-11-27T12:02:08;99937.16;;;13.47;54.88
9893;BME280;4985;49.092;8.542;2022-11-27T12:05:07;99938.97;;;13.46;54.89
9893;BME280;4985;49.092;8.542;2022-11-27T12:07:48;99946.75;;;13.48;54.88
9893;BME280;4985;49.092;8.542;2022-11-27T12:10:22;99931.87;;;13.47;54.88
9893;BME280;4985;49.092;8.542;2022-11-27T12:12:58;99929.56;;;13.44;54.90
9893;BME280;4985;49.092;8.542;2022-11-27T12:15:33;99930.38;;;13.44;54.87
9893;BME280;4985;49.092;8.542;2022-11-27T12:18:09;99938.97;;;13.46;54.90
9893;BME280;4985;49.092;8.542;2022-11-27T12:20:49;99931.87;;;13.47;54.92
9893;BME280;4985;49.092;8.542;2022-11-27T12:23:37;99931.22;;;13.45;54.94
9893;BME280;4985;49.092;8.542;2022-11-27T12:26:14;99934.50;;;13.47;54.94
9893;BME280;4985;49.092;8.542;2022-11-27T12:29:32;99916.00;;;13.47;54.92
9893;BME280;4985;49.092;8.542;2022-11-27T12:32:26;99914.16;;;13.47;54.93
9893;BME280;4985;49.092;8.542;2022-11-27T12:35:04;99909.06;;;13.46;54.95
9893;BME280;4985;49.092;8.542;2022-11-27T12:37:42;99907.22;;;13.46;54.96
9893;BME280;4985;49.092;8.542;2022-11-27T12:40:27;99902.78;;;13.47;54.96
9893;BME280;4985;49.092;8.542;2022-11-27T12:43:06;99907.22;;;13.46;54.97
9893;BME280;4985;49.092;8.542;2022-11-27T12:45:42;99901.94;;;13.46;54.96
9893;BME280;4985;49.092;8.542;2022-11-27T12:48:16;99892.19;;;13.47;54.95
9893;BME280;4985;49.092;8.542;2022-11-27T12:50:49;99886.91;;;13.47;54.95
9893;BME280;4985;49.092;8.542;2022-11-27T12:53:21;99884.25;;;13.47;54.96
9893;BME280;4985;49.092;8.542;2022-11-27T12:56:00;99882.28;;;13.49;54.94
9893;BME280;4985;49.092;8.542;2022-11-27T12:58:32;99877.00;;;13.49;54.96
9893;BME280;4985;49.092;8.542;2022-11-27T13:01:05;99869.91;;;13.49;54.95
9893;BME280;4985;49.092;8.542;2022-11-27T13:03:43;99874.38;;;13.49;54.95
9893;BME280;4985;49.092;8.542;2022-11-27T13:06:16;99869.91;;;13.49;54.97
9893;BME280;4985;49.092;8.542;2022-11-27T13:08:57;99871.72;;;13.49;54.95
9893;BME280;4985;49.092;8.542;2022-11-27T13:11:31;99864.59;;;13.49;54.94
9893;BME280;4985;49.092;8.542;2022-11-27T13:14:04;99860.12;;;13.50;54.93
9893;BME280;4985;49.092;8.542;2022-11-27T13:16:35;99862.63;;;13.51;54.91
9893;BME280;4985;49.092;8.542;2022-11-27T13:19:09;99867.06;;;13.51;54.93
9893;BME280;4985;49.092;8.542;2022-11-27T13:21:38;99856.50;;;13.51;54.93
9893;BME280;4985;49.092;8.542;2022-11-27T13:24:10;99860.12;;;13.50;54.94
9893;BME280;4985;49.092;8.542;2022-11-27T13:26:41;99860.97;;;13.50;54.94
9893;BME280;4985;49.092;8.542;2022-11-27T13:29:16;99861.78;;;13.51;54.93
9893;BME280;4985;49.092;8.542;2022-11-27T13:31:46;99859.47;;;13.48;54.95
9893;BME280;4985;49.092;8.542;2022-11-27T13:34:19;99870.53;;;13.51;54.92